Time;durP1;ratioP1;P1;durP2;ratioP2;P2;SDS_P1;SDS_P2;PMS_P1;PMS_P2;Temp;Humidity;BMP_temperature;BMP_pressure;BME280_temperature;BME280_humidity;BME280_pressure;Samples;Min_cycle;Max_cycle;Signal;HPM_P1;HPM_P2
2024/01/17 00:01:26;;;;;;;21.07;13.10;;;;;;;-6.60;100.00;99808.53;10502794;27;20104;-86
2024/01/17 00:06:27;;;;;;;16.43;12.97;;;;;;;-6.63;100.00;99801.47;10510592;27;20070;-86
2024/01/17 00:11:27;;;;;;;11.33;7.73;;;;;;;-6.73;100.00;99786.97;10497037;28;20044;-87
2024/01/17 00:16:28;;;;;;;22.80;15.00;;;;;;;-6.73;100.00;99788.59;10474825;28;20122;-86
2024/01/17 00:21:28;;;;;;;18.63;10.97;;;;;;;-6.75;100.00;99780.81;10468561;28;20113;-86
2024/01/17 00:26:29;;;;;;;15.50;10.97;;;;;;;-6.73;100.00;99765.69;10456549;28;20044;-85
2024/01/17 00:31:29;;;;;;;22.23;11.87;;;;;;;-6.76;100.00;99761.22;10455789;28;20462;-85
2024/01/17 00:36:30;;;;;;;20.90;12.43;;;;;;;-6.74;100.00;99763.91;10465779;28;20131;-85
2024/01/17 00:41:30;;;;;;;17.43;11.23;;;;;;;-6.76;100.00;99745.94;10470348;28;20871;-86
2024/01/17 00:46:31;;;;;;;18.50;12.03;;;;;;;-6.75;100.00;99734.09;10470453;28;20044;-82
2024/01/17 00:51:32;;;;;;;18.50;12.63;;;;;;;-6.82;100.00;99719.91;10521087;27;20245;-86
2024/01/17 00:56:34;;;;;;;17.50;10.67;;;;;;;-6.82;100.00;99718.25;10504072;28;20283;-85
2024/01/17 01:01:34;;;;;;;21.92;11.90;;;;;;;-6.83;100.00;99711.34;10470878;28;20045;-85
2024/01/17 01:06:35;;;;;;;14.70;8.40;;;;;;;-6.79;100.00;99710.91;10474345;28;20088;-85
2024/01/17 01:11:36;;;;;;;21.60;13.33;;;;;;;-6.82;100.00;99704.63;10484918;28;20051;-85
2024/01/17 01:16:37;;;;;;;22.05;12.05;;;;;;;-6.85;100.00;99696.69;10486490;28;20048;-85
2024/01/17 01:21:37;;;;;;;17.03;11.60;;;;;;;-6.88;100.00;99681.13;10502868;27;20039;-85
2024/01/17 01:26:38;;;;;;;13.97;11.00;;;;;;;-6.88;100.00;99684.56;10525063;27;20115;-85
2024/01/17 01:31:38;;;;;;;16.77;11.83;;;;;;;-6.91;100.00;99686.81;10525386;28;20131;-83
2024/01/17 01:36:39;;;;;;;15.67;11.73;;;;;;;-6.90;100.00;99672.47;10523645;27;20131;-84
2024/01/17 01:41:40;;;;;;;16.98;11.77;;;;;;;-6.94;100.00;99671.25;10513659;27;20037;-85
2024/01/17 01:46:42;;;;;;;16.90;11.67;;;;;;;-6.91;100.00;99663.91;10480732;28;20297;-84
2024/01/17 01:51:44;;;;;;;17.40;10.30;;;;;;;-6.93;100.00;99661.22;10482518;28;20124;-84
2024/01/17 01:56:44;;;;;;;15.93;12.23;;;;;;;-6.88;100.00;99658.22;10481244;28;20123;-85
2024/01/17 02:01:45;;;;;;;19.37;11.97;;;;;;;-6.91;100.00;99645.22;10515845;28;20036;-85
2024/01/17 02:06:46;;;;;;;13.27;11.63;;;;;;;-6.93;100.00;99634.88;10474395;27;20128;-84
2024/01/17 02:11:46;;;;;;;23.17;14.35;;;;;;;-6.94;100.00;99630.53;10508684;27;20036;-84
2024/01/17 02:16:47;;;;;;;22.23;12.73;;;;;;;-6.92;100.00;99621.41;10499067;27;20053;-83
2024/01/17 02:21:47;;;;;;;17.60;13.57;;;;;;;-6.97;100.00;99620.06;10520407;27;20170;-83
2024/01/17 02:26:48;;;;;;;28.67;14.43;;;;;;;-6.90;100.00;99614.81;10515839;27;20063;-82
2024/01/17 02:31:48;;;;;;;18.03;13.13;;;;;;;-6.95;100.00;99609.31;10510597;27;20044;-84
2024/01/17 02:36:49;;;;;;;22.87;14.00;;;;;;;-6.90;100.00;99594.47;10510043;27;20126;-84
2024/01/17 02:41:49;;;;;;;22.43;13.27;;;;;;;-6.96;100.00;99578.63;10507909;27;20472;-84
2024/01/17 02:46:50;;;;;;;13.73;9.90;;;;;;;-7.05;100.00;99568.47;10507933;28;20089;-84
2024/01/17 02:51:50;;;;;;;15.63;12.57;;;;;;;-7.10;100.00;99564.59;10542991;27;20688;-83
2024/01/17 02:56:51;;;;;;;19.90;13.57;;;;;;;-7.06;100.00;99564.13;10518158;27;20040;-84
2024/01/17 03:01:53;;;;;;;20.10;12.03;;;;;;;-6.98;100.00;99564.84;10513822;27;20044;-82
2024/01/17 03:06:54;;;;;;;19.80;11.50;;;;;;;-7.03;100.00;99550.78;10516821;27;20125;-83
2024/01/17 03:11:54;;;;;;;15.10;11.03;;;;;;;-7.08;100.00;99530.91;10477482;27;20109;-82
2024/01/17 03:16:54;;;;;;;20.90;13.47;;;;;;;-7.18;100.00;99518.06;10519804;27;20126;-84
2024/01/17 03:21:55;;;;;;;18.77;11.60;;;;;;;-7.26;100.00;99518.97;10502289;27;20112;-83
2024/01/17 03:26:55;;;;;;;20.53;13.47;;;;;;;-7.27;100.00;99517.19;10520512;27;20162;-83
2024/01/17 03:31:56;;;;;;;17.93;12.20;;;;;;;-7.23;100.00;99502.38;10488327;27;20044;-83
2024/01/17 03:36:57;;;;;;;21.50;11.53;;;;;;;-7.31;100.00;99484.56;10511739;27;20048;-84
2024/01/17 03:41:57;;;;;;;10.30;8.63;;;;;;;-7.31;100.00;99461.69;10514541;27;20131;-84
2024/01/17 03:46:58;;;;;;;17.87;10.63;;;;;;;-7.28;100.00;99454.34;10512038;27;20499;-83
2024/01/17 03:51:59;;;;;;;19.27;10.57;;;;;;;-7.43;100.00;99426.72;10500131;27;20047;-84
2024/01/17 03:56:59;;;;;;;23.70;14.27;;;;;;;-7.57;100.00;99417.81;10511071;27;20481;-83
2024/01/17 04:02:00;;;;;;;15.83;10.93;;;;;;;-7.55;100.00;99402.69;10484114;27;20119;-83
2024/01/17 04:07:00;;;;;;;19.40;11.53;;;;;;;-7.60;100.00;99391.19;10516600;27;20131;-83
2024/01/17 04:12:02;;;;;;;17.53;11.93;;;;;;;-7.69;100.00;99378.53;10501350;27;20035;-82
2024/01/17 04:17:02;;;;;;;;;;;;;;;-7.59;100.00;99355.78;10526781;27;20087;-82
2024/01/17 04:22:03;;;;;;;27.07;10.83;;;;;;;-7.41;100.00;99346.44;10532710;27;19978;-83
2024/01/17 04:27:04;;;;;;;23.73;12.55;;;;;;;-7.34;100.00;99336.84;10523757;27;20047;-83
2024/01/17 04:32:04;;;;;;;22.77;13.47;;;;;;;-7.41;100.00;99317.59;10530415;27;20111;-83
2024/01/17 04:37:05;;;;;;;17.90;10.50;;;;;;;-7.50;100.00;99312.53;10535300;28;20036;-83
2024/01/17 04:42:05;;;;;;;16.03;11.97;;;;;;;-7.54;100.00;99305.38;10527812;28;20119;-81
2024/01/17 04:47:06;;;;;;;24.67;14.30;;;;;;;-7.45;100.00;99282.47;10537184;28;20491;-82
2024/01/17 04:52:06;;;;;;;20.30;11.47;;;;;;;-7.50;100.00;99271.84;10514855;27;20036;-84
2024/01/17 04:57:07;;;;;;;22.07;14.27;;;;;;;-7.53;100.00;99267.41;10521930;27;20082;-83
2024/01/17 05:02:07;;;;;;;21.77;12.40;;;;;;;-7.55;100.00;99268.00;10507893;27;20041;-81
2024/01/17 05:07:08;;;;;;;13.83;11.73;;;;;;;-7.56;100.00;99262.03;10521521;27;20055;-82
2024/01/17 05:12:09;;;;;;;21.55;11.57;;;;;;;-7.55;100.00;99245.13;10523929;27;20492;-83
2024/01/17 05:17:13;;;;;;;17.63;11.57;;;;;;;-7.52;100.00;99245.41;10508864;27;20109;-83
2024/01/17 05:22:14;;;;;;;16.13;10.48;;;;;;;-7.52;100.00;99207.28;10509106;27;20035;-82
2024/01/17 05:27:14;;;;;;;12.82;10.20;;;;;;;-7.44;100.00;99201.25;10508750;27;20123;-81
2024/01/17 05:32:16;;;;;;;27.88;11.07;;;;;;;-7.37;100.00;99201.06;10481648;27;20404;-81
2024/01/17 05:37:16;;;;;;;14.20;8.40;;;;;;;-7.28;100.00;99195.94;10506690;28;20530;-80
2024/01/17 05:42:17;;;;;;;20.00;11.87;;;;;;;-7.23;100.00;99184.53;10508527;27;20350;-81
2024/01/17 05:47:17;;;;;;;19.90;10.23;;;;;;;-7.15;100.00;99180.13;10527449;27;20489;-81
2024/01/17 05:52:17;;;;;;;16.50;11.57;;;;;;;-7.14;100.00;99176.81;10508023;28;20061;-79
2024/01/17 05:57:18;;;;;;;17.83;10.33;;;;;;;-7.07;100.00;99157.94;10528636;28;20543;-79
2024/01/17 06:02:19;;;;;;;22.07;9.90;;;;;;;-7.14;100.00;99161.56;10527357;28;20036;-79
2024/01/17 06:07:19;;;;;;;16.83;11.40;;;;;;;-7.18;100.00;99153.53;10524574;28;20123;-80
2024/01/17 06:12:20;;;;;;;18.00;10.07;;;;;;;-7.11;100.00;99146.59;10525136;28;20555;-79
2024/01/17 06:17:20;;;;;;;31.10;10.68;;;;;;;-6.99;100.00;99130.63;10525250;28;20047;-80
2024/01/17 06:22:21;;;;;;;26.23;12.43;;;;;;;-6.93;100.00;99138.81;10501605;27;20032;-79
2024/01/17 06:27:22;;;;;;;12.33;9.27;;;;;;;-6.91;100.00;99144.03;10510123;27;20561;-79
2024/01/17 06:32:23;;;;;;;18.77;12.38;;;;;;;-6.89;100.00;99128.13;10490757;27;20048;-80
2024/01/17 06:37:23;;;;;;;16.90;12.03;;;;;;;-6.84;100.00;99113.28;10510294;27;20037;-80
2024/01/17 06:42:24;;;;;;;20.37;10.57;;;;;;;-6.79;100.00;99112.94;10521739;27;20122;-80
2024/01/17 06:47:24;;;;;;;18.80;10.60;;;;;;;-6.73;100.00;99098.94;10522623;28;20043;-81
2024/01/17 06:52:25;;;;;;;13.80;11.90;;;;;;;-6.68;100.00;99090.06;10521178;27;20177;-80
2024/01/17 06:57:25;;;;;;;15.00;10.53;;;;;;;-6.55;100.00;99085.28;10526366;27;20044;-80
2024/01/17 07:02:26;;;;;;;9.83;6.27;;;;;;;-6.54;100.00;99070.91;10501732;27;20446;-80
2024/01/17 07:07:26;;;;;;;14.13;11.43;;;;;;;-6.49;100.00;99060.34;10506621;28;20124;-81
2024/01/17 07:12:26;;;;;;;14.43;9.87;;;;;;;-6.42;100.00;99060.88;10525104;28;20123;-79
2024/01/17 07:17:27;;;;;;;16.07;10.87;;;;;;;-6.43;100.00;99041.28;10520671;28;20444;-80
2024/01/17 07:22:27;;;;;;;13.37;10.07;;;;;;;-6.35;100.00;99037.72;10524120;28;20048;-78
2024/01/17 07:27:28;;;;;;;19.53;9.97;;;;;;;-6.32;100.00;99029.47;10523557;28;20127;-79
2024/01/17 07:32:28;;;;;;;27.67;10.37;;;;;;;-6.12;100.00;99016.75;10524152;28;20139;-78
2024/01/17 07:37:29;;;;;;;18.93;10.03;;;;;;;-6.14;100.00;99009.72;10522582;28;20287;-80
2024/01/17 07:42:29;;;;;;;12.43;9.73;;;;;;;-6.15;100.00;98987.56;10521212;28;20040;-79
2024/01/17 07:47:30;;;;;;;17.10;8.47;;;;;;;-6.10;100.00;98976.09;10522473;28;20039;-79
2024/01/17 07:52:30;;;;;;;20.03;10.97;;;;;;;-6.01;100.00;98963.25;10520885;28;20135;-79
2024/01/17 07:57:31;;;;;;;12.10;8.33;;;;;;;-5.97;100.00;98957.59;10504269;28;20459;-79
2024/01/17 08:02:31;;;;;;;12.33;7.30;;;;;;;-5.90;100.00;98937.84;10517698;28;20038;-79
2024/01/17 08:07:33;;;;;;;18.97;11.80;;;;;;;-5.75;100.00;98930.56;10517277;28;20503;-79
2024/01/17 08:12:33;;;;;;;21.65;12.63;;;;;;;-5.70;100.00;98914.75;10504852;28;20036;-79
2024/01/17 08:17:34;;;;;;;17.43;11.90;;;;;;;-5.67;100.00;98905.66;10503822;28;20559;-78
2024/01/17 08:22:34;;;;;;;25.23;15.97;;;;;;;-5.55;100.00;98897.22;10523198;28;20399;-78
2024/01/17 08:27:38;;;;;;;17.37;12.93;;;;;;;-5.46;100.00;98896.31;10519793;28;20044;-80
2024/01/17 08:32:39;;;;;;;13.55;12.10;;;;;;;-5.37;100.00;98891.03;10502771;28;20114;-78
2024/01/17 08:37:40;;;;;;;21.55;12.05;;;;;;;-5.17;100.00;98887.50;10491733;28;20044;-79
2024/01/17 08:42:43;;;;;;;18.03;12.03;;;;;;;-4.97;100.00;98885.59;10494962;27;20041;-79
2024/01/17 08:47:44;;;;;;;12.90;10.68;;;;;;;-4.96;100.00;98878.81;10506902;27;20274;-79
2024/01/17 08:52:45;;;;;;;18.42;11.70;;;;;;;-4.87;100.00;98867.66;10504347;27;20040;-79
2024/01/17 08:57:45;;;;;;;21.83;9.93;;;;;;;-4.77;100.00;98864.13;10501611;27;20173;-79
2024/01/17 09:02:46;;;;;;;18.90;11.67;;;;;;;-4.64;100.00;98857.41;10506765;27;20055;-79
2024/01/17 09:07:49;;;;;;;15.00;10.40;;;;;;;-4.54;100.00;98843.66;10511251;27;20606;-79
2024/01/17 09:12:50;;;;;;;24.55;11.93;;;;;;;-4.44;100.00;98834.22;10527946;27;20274;-79
2024/01/17 09:17:51;;;;;;;20.75;13.23;;;;;;;-4.31;100.00;98812.16;10498318;27;20036;-82
2024/01/17 09:22:52;;;;;;;20.27;10.35;;;;;;;-4.23;100.00;98798.28;10520298;28;20036;-80
2024/01/17 09:27:52;;;;;;;12.03;7.80;;;;;;;-4.18;100.00;98802.03;10526515;27;20123;-79
2024/01/17 09:32:53;;;;;;;13.33;10.67;;;;;;;-4.04;100.00;98781.72;10511851;27;20150;-80
2024/01/17 09:37:53;;;;;;;15.77;9.70;;;;;;;-3.97;100.00;98772.84;10508581;27;20124;-79
2024/01/17 09:42:54;;;;;;;18.43;9.93;;;;;;;-3.87;100.00;98781.25;10514307;27;20551;-79
2024/01/17 09:47:55;;;;;;;14.60;9.73;;;;;;;-3.77;100.00;98782.81;10507299;27;20048;-79
2024/01/17 09:52:56;;;;;;;24.75;10.13;;;;;;;-3.79;100.00;98793.69;10501806;27;20045;-81
2024/01/17 09:57:57;;;;;;;17.10;10.98;;;;;;;-3.76;100.00;98792.25;10521296;27;20422;-82
2024/01/17 10:02:58;;;;;;;20.80;12.90;;;;;;;-3.67;100.00;98796.25;10525789;27;20119;-81
2024/01/17 10:07:59;;;;;;;14.43;8.87;;;;;;;-3.66;100.00;98798.00;10507832;27;20120;-81
2024/01/17 10:13:00;;;;;;;17.00;10.93;;;;;;;-3.50;100.00;98793.19;10524131;27;20040;-82
2024/01/17 10:18:01;;;;;;;19.63;12.88;;;;;;;-3.40;100.00;98790.50;10503338;27;20040;-82
2024/01/17 10:23:03;;;;;;;16.15;9.70;;;;;;;-3.49;100.00;98788.94;10517346;27;20057;-80
2024/01/17 10:28:04;;;;;;;18.48;10.32;;;;;;;-3.37;100.00;98800.03;10499389;27;20450;-80
2024/01/17 10:33:07;;;;;;;20.23;12.57;;;;;;;-3.28;100.00;98787.88;10524491;27;20047;-80
2024/01/17 10:38:08;;;;;;;21.92;10.75;;;;;;;-3.26;100.00;98781.19;10503471;27;20169;-80
2024/01/17 10:43:13;;;;;;;20.10;9.32;;;;;;;-3.31;100.00;98785.09;10501374;27;20029;-80
2024/01/17 10:48:15;;;;;;;15.90;9.85;;;;;;;-3.19;100.00;98779.06;10506697;27;20123;-80
2024/01/17 10:53:16;;;;;;;19.70;9.90;;;;;;;-3.14;100.00;98772.56;10496483;28;20032;-81
2024/01/17 10:58:16;;;;;;;12.67;8.50;;;;;;;-3.14;100.00;98772.56;10524930;28;20036;-81
2024/01/17 11:03:20;;;;;;;20.83;11.90;;;;;;;-3.12;100.00;98766.78;10507961;28;20127;-81
2024/01/17 11:08:20;;;;;;;17.83;10.38;;;;;;;-3.01;100.00;98772.63;10541284;28;20161;-82
2024/01/17 11:13:21;;;;;;;15.07;9.43;;;;;;;-2.95;100.00;98769.59;10523022;28;20441;-81
2024/01/17 11:18:22;;;;;;;21.03;12.40;;;;;;;-2.92;100.00;98766.34;10525971;28;20093;-81
2024/01/17 11:23:29;;;;;;;12.77;9.43;;;;;;;-2.89;100.00;98758.88;10522806;28;20032;-81
2024/01/17 11:28:41;;;;;;;24.67;11.40;;;;;;;-2.87;100.00;98758.22;10507873;28;20047;-82
2024/01/17 11:33:43;;;;;;;18.23;11.73;;;;;;;-2.86;100.00;98752.31;10522683;28;20044;-81
2024/01/17 11:38:44;;;;;;;15.75;10.25;;;;;;;-2.86;100.00;98741.16;10498428;27;20036;-81
2024/01/17 11:43:44;;;;;;;11.53;7.07;;;;;;;-2.89;100.00;98726.50;10499140;27;20033;-81
2024/01/17 11:48:47;;;;;;;21.53;11.40;;;;;;;-2.96;100.00;98707.25;10506427;27;20054;-81
2024/01/17 11:53:53;;;;;;;14.00;11.20;;;;;;;-3.02;100.00;98694.06;10504793;27;20032;-81
2024/01/17 11:58:58;;;;;;;18.58;11.48;;;;;;;-3.12;100.00;98681.44;10497923;27;20457;-81
2024/01/17 12:03:58;;;;;;;19.65;12.27;;;;;;;-3.09;100.00;98658.59;10484651;27;20119;-80
2024/01/17 12:08:59;;;;;;;17.87;13.23;;;;;;;-3.18;100.00;98641.00;10522446;27;20039;-80
2024/01/17 12:13:59;;;;;;;13.40;8.17;;;;;;;-3.13;100.00;98624.28;10515355;27;20139;-81
2024/01/17 12:19:00;;;;;;;18.50;12.47;;;;;;;-3.18;100.00;98596.59;10505725;27;20536;-81
2024/01/17 12:24:00;;;;;;;19.73;12.77;;;;;;;-3.23;100.00;98582.59;10497649;28;20039;-81
2024/01/17 12:29:11;;;;;;;22.23;12.70;;;;;;;-3.22;100.00;98575.03;10512788;27;20119;-81
2024/01/17 12:34:11;;;;;;;24.50;12.80;;;;;;;-3.18;100.00;98558.22;10551103;27;20187;-82
2024/01/17 12:39:12;;;;;;;20.47;11.23;;;;;;;-3.12;100.00;98538.13;10502438;28;20099;-82
2024/01/17 12:44:13;;;;;;;16.42;10.35;;;;;;;-2.98;100.00;98526.22;10522980;28;20497;-82
2024/01/17 12:49:14;;;;;;;17.33;10.73;;;;;;;-2.71;100.00;98510.81;10529295;28;20445;-81
2024/01/17 12:54:17;;;;;;;15.10;9.90;;;;;;;-2.58;100.00;98492.88;10527346;28;20130;-81
2024/01/17 12:59:18;;;;;;;13.30;8.40;;;;;;;-2.60;100.00;98485.88;10526849;28;20036;-81
2024/01/17 13:04:18;;;;;;;20.63;9.30;;;;;;;-2.63;100.00;98471.22;10485751;28;20042;-82
2024/01/17 13:09:20;;;;;;;20.43;11.63;;;;;;;-2.64;100.00;98459.19;10508962;28;20046;-81
2024/01/17 13:14:22;;;;;;;14.98;7.05;;;;;;;-2.66;100.00;98448.84;10526995;28;20486;-81
2024/01/17 13:19:22;;;;;;;9.20;8.23;;;;;;;-2.66;100.00;98445.41;10530372;27;20084;-84
2024/01/17 13:24:23;;;;;;;16.37;7.80;;;;;;;-2.66;100.00;98437.72;10528526;28;20036;-83
2024/01/17 13:29:24;;;;;;;19.73;6.77;;;;;;;-2.65;100.00;98429.25;10543033;28;20047;-82
2024/01/17 13:34:24;;;;;;;13.20;9.93;;;;;;;-2.66;100.00;98423.22;10526890;28;20434;-82
2024/01/17 13:39:28;;;;;;;15.37;9.53;;;;;;;-2.73;100.00;98425.34;10527891;28;20093;-79
2024/01/17 13:44:28;;;;;;;14.40;8.93;;;;;;;-2.79;100.00;98430.09;10509990;28;20181;-84
2024/01/17 13:49:29;;;;;;;9.73;6.80;;;;;;;-2.77;100.00;98423.38;10525127;28;20490;-81
2024/01/17 13:54:30;;;;;;;14.77;9.77;;;;;;;-2.69;100.00;98420.50;10525371;28;20074;-80
2024/01/17 13:59:31;;;;;;;14.63;8.55;;;;;;;-2.68;100.00;98424.81;10525922;28;20376;-81
2024/01/17 14:04:32;;;;;;;14.25;8.25;;;;;;;-2.72;100.00;98430.53;10526305;28;20109;-80
2024/01/17 14:09:33;;;;;;;8.17;5.33;;;;;;;-2.60;100.00;98426.97;10525240;28;20127;-80
2024/01/17 14:14:35;;;;;;;15.30;7.97;;;;;;;-2.57;100.00;98424.56;10531028;27;20979;-81
2024/01/17 14:19:36;;;;;;;11.75;8.57;;;;;;;-2.63;100.00;98421.66;10527153;28;20039;-81
2024/01/17 14:24:36;;;;;;;14.77;8.97;;;;;;;-2.68;100.00;98417.13;10494578;28;20487;-81
2024/01/17 14:29:37;;;;;;;12.07;8.73;;;;;;;-2.71;100.00;98406.72;10523672;28;20161;-81
2024/01/17 14:34:38;;;;;;;16.47;10.07;;;;;;;-2.77;100.00;98408.03;10526509;28;20124;-80
2024/01/17 14:39:41;;;;;;;20.20;10.50;;;;;;;-2.82;100.00;98415.41;10483561;28;20423;-80
2024/01/17 14:44:42;;;;;;;17.95;10.85;;;;;;;-2.79;100.00;98407.06;10500077;27;20421;-79
2024/01/17 14:49:42;;;;;;;22.30;11.60;;;;;;;-2.81;100.00;98417.19;10507921;27;20070;-80
2024/01/17 14:54:43;;;;;;;14.13;10.43;;;;;;;-2.83;100.00;98414.53;10513514;27;20123;-80
2024/01/17 14:59:43;;;;;;;17.03;13.10;;;;;;;-2.86;100.00;98410.91;10505849;27;20156;-80
2024/01/17 15:04:44;;;;;;;19.93;13.73;;;;;;;-2.86;100.00;98405.78;10513488;27;20384;-81
2024/01/17 15:09:44;;;;;;;11.57;7.77;;;;;;;-2.87;100.00;98402.34;10510022;28;20114;-81
2024/01/17 15:14:45;;;;;;;15.80;11.40;;;;;;;-2.86;100.00;98395.53;10518643;28;20449;-81
2024/01/17 15:19:45;;;;;;;20.87;14.97;;;;;;;-2.88;100.00;98394.56;10489334;27;20067;-80
2024/01/17 15:24:46;;;;;;;25.13;13.97;;;;;;;-2.93;100.00;98388.28;10477066;28;20059;-81
2024/01/17 15:29:47;;;;;;;23.03;14.20;;;;;;;-2.96;100.00;98392.41;10458228;28;20037;-80
2024/01/17 15:34:49;;;;;;;15.05;11.52;;;;;;;-3.06;100.00;98395.19;10476845;28;20094;-81
2024/01/17 15:39:50;;;;;;;19.92;12.43;;;;;;;-3.15;100.00;98394.63;10458446;28;20063;-80
2024/01/17 15:44:52;;;;;;;19.80;13.30;;;;;;;-3.17;100.00;98391.09;10505580;28;20384;-80
2024/01/17 15:49:52;;;;;;;;;;;;;;;-3.30;100.00;98395.44;10507379;27;20135;-79
2024/01/17 15:54:53;;;;;;;16.77;13.15;;;;;;;-3.38;100.00;98390.66;10508970;27;19928;-80
2024/01/17 15:59:53;;;;;;;16.00;11.03;;;;;;;-3.47;100.00;98385.84;10515447;27;20066;-79
2024/01/17 16:04:53;;;;;;;15.40;8.43;;;;;;;-3.55;100.00;98391.34;10516583;27;20480;-80
2024/01/17 16:09:54;;;;;;;18.13;11.43;;;;;;;-3.55;100.00;98404.13;10516709;27;20123;-79
2024/01/17 16:14:55;;;;;;;14.07;8.37;;;;;;;-3.51;100.00;98394.09;10511460;27;20052;-78
2024/01/17 16:19:55;;;;;;;17.00;11.00;;;;;;;-3.49;100.00;98395.09;10510276;27;20127;-78
2024/01/17 16:24:56;;;;;;;16.70;11.70;;;;;;;-3.30;100.00;98400.56;10516512;28;20036;-78
2024/01/17 16:29:56;;;;;;;21.70;12.07;;;;;;;-3.32;100.00;98398.72;10514938;27;20155;-78
2024/01/17 16:34:57;;;;;;;20.03;10.10;;;;;;;-3.43;100.00;98395.47;10501488;27;20123;-78
2024/01/17 16:39:58;;;;;;;24.50;12.67;;;;;;;-3.44;100.00;98401.38;10475997;28;20051;-78
2024/01/17 16:44:59;;;;;;;22.80;12.52;;;;;;;-3.27;100.00;98413.56;10501345;27;20487;-75
2024/01/17 16:49:59;;;;;;;24.53;15.83;;;;;;;-3.30;100.00;98425.28;10500518;27;20068;-80
2024/01/17 16:55:00;;;;;;;21.73;15.97;;;;;;;-3.35;100.00;98440.31;10465250;28;20482;-80
2024/01/17 17:00:05;;;;;;;23.67;16.00;;;;;;;-3.37;100.00;98426.56;10515586;28;20078;-79
2024/01/17 17:05:07;;;;;;;30.15;17.55;;;;;;;-3.44;100.00;98435.53;10511592;27;20036;-79
2024/01/17 17:10:08;;;;;;;22.63;15.55;;;;;;;-3.51;100.00;98435.91;10508267;27;20032;-79
2024/01/17 17:15:09;;;;;;;24.87;18.33;;;;;;;-3.57;100.00;98438.94;10461630;28;20033;-79
2024/01/17 17:20:10;;;;;;;18.92;13.98;;;;;;;-3.59;100.00;98440.53;10477240;28;20348;-80
2024/01/17 17:25:11;;;;;;;29.73;20.97;;;;;;;-3.59;100.00;98439.66;10476812;28;20049;-80
2024/01/17 17:30:15;;;;;;;23.77;17.03;;;;;;;-3.55;100.00;98449.28;10483181;28;20362;-80
2024/01/17 17:35:15;;;;;;;23.38;17.13;;;;;;;-3.57;100.00;98453.44;10482274;28;20049;-80
2024/01/17 17:40:16;;;;;;;24.67;14.30;;;;;;;-3.59;100.00;98443.09;10482927;28;20456;-80
2024/01/17 17:45:17;;;;;;;30.20;17.90;;;;;;;-3.60;100.00;98436.19;10467747;28;20085;-79
2024/01/17 17:50:17;;;;;;;27.93;20.57;;;;;;;-3.64;100.00;98448.69;10502264;27;20098;-80
2024/01/17 17:55:18;;;;;;;29.93;21.67;;;;;;;-3.63;100.00;98463.25;10508232;27;20173;-80
2024/01/17 18:00:20;;;;;;;22.40;18.07;;;;;;;-3.60;100.00;98466.00;10513220;27;20068;-79
2024/01/17 18:05:21;;;;;;;39.60;25.08;;;;;;;-3.55;100.00;98462.09;10505409;27;20043;-79
2024/01/17 18:10:22;;;;;;;37.80;26.80;;;;;;;-3.47;100.00;98467.66;10503825;28;20515;-79
2024/01/17 18:15:22;;;;;;;35.15;27.85;;;;;;;-3.42;100.00;98458.63;10481652;28;20492;-80
2024/01/17 18:20:23;;;;;;;34.83;27.30;;;;;;;-3.44;100.00;98467.88;10480837;27;20131;-80
2024/01/17 18:25:23;;;;;;;46.87;30.10;;;;;;;-3.49;100.00;98475.25;10508181;27;20111;-80
2024/01/17 18:30:24;;;;;;;40.37;25.17;;;;;;;-3.56;100.00;98496.13;10515258;27;20472;-80
2024/01/17 18:35:25;;;;;;;31.53;25.57;;;;;;;-3.60;100.00;98499.25;10509547;27;20047;-80
2024/01/17 18:40:25;;;;;;;32.97;24.00;;;;;;;-3.62;100.00;98504.25;10529974;27;20118;-80
2024/01/17 18:45:26;;;;;;;47.67;29.73;;;;;;;-3.63;100.00;98515.25;10520170;27;20127;-81
2024/01/17 18:50:26;;;;;;;35.93;27.90;;;;;;;-3.64;100.00;98521.16;10509868;27;20043;-80
2024/01/17 18:55:27;;;;;;;33.77;23.57;;;;;;;-3.64;100.00;98533.94;10524598;27;20131;-81
2024/01/17 19:00:28;;;;;;;37.88;26.00;;;;;;;-3.64;100.00;98523.72;10510217;28;20125;-79
2024/01/17 19:05:29;;;;;;;41.07;26.27;;;;;;;-3.65;100.00;98533.88;10514918;27;20197;-81
2024/01/17 19:10:29;;;;;;;35.73;25.97;;;;;;;-3.67;100.00;98543.97;10505885;27;20054;-81
2024/01/17 19:15:30;;;;;;;47.17;29.10;;;;;;;-3.68;100.00;98549.88;10517245;27;20058;-81
2024/01/17 19:20:30;;;;;;;35.90;26.87;;;;;;;-3.69;100.00;98561.78;10500805;27;20039;-82
2024/01/17 19:25:31;;;;;;;38.00;26.43;;;;;;;-3.67;100.00;98564.44;10515279;27;20570;-81
2024/01/17 19:30:32;;;;;;;38.17;25.07;;;;;;;-3.66;100.00;98578.13;10506731;27;20062;-81
2024/01/17 19:35:33;;;;;;;36.80;25.15;;;;;;;-3.70;100.00;98564.22;10515925;27;20035;-81
2024/01/17 19:40:35;;;;;;;47.50;28.27;;;;;;;-3.74;100.00;98581.03;10487556;28;20036;-80
2024/01/17 19:45:35;;;;;;;43.97;30.58;;;;;;;-3.75;100.00;98586.03;10518117;27;20040;-79
2024/01/17 19:50:36;;;;;;;39.10;29.23;;;;;;;-3.79;100.00;98591.72;10509533;27;20561;-79
2024/01/17 19:55:39;;;;;;;36.33;26.50;;;;;;;-3.86;100.00;98601.53;10520007;27;20452;-79
2024/01/17 20:00:40;;;;;;;40.13;26.95;;;;;;;-3.83;100.00;98611.97;10506867;27;20125;-79
2024/01/17 20:05:40;;;;;;;46.23;26.97;;;;;;;-3.76;100.00;98613.28;10515758;27;20118;-79
2024/01/17 20:10:41;;;;;;;43.23;27.47;;;;;;;-3.73;100.00;98626.28;10507928;27;20480;-78
2024/01/17 20:15:44;;;;;;;41.90;27.30;;;;;;;-3.74;100.00;98623.59;10469367;28;20045;-79
2024/01/17 20:20:44;;;;;;;51.78;31.13;;;;;;;-3.75;100.00;98632.97;10466740;28;20049;-79
2024/01/17 20:25:45;;;;;;;43.13;31.90;;;;;;;-3.77;100.00;98647.31;10465146;28;20048;-78
2024/01/17 20:30:49;;;;;;;48.93;32.50;;;;;;;-3.76;100.00;98660.97;10467207;28;20040;-78
2024/01/17 20:35:49;;;;;;;44.30;32.28;;;;;;;-3.77;100.00;98671.97;10476292;28;20044;-77
2024/01/17 20:40:50;;;;;;;41.13;29.90;;;;;;;-3.77;100.00;98669.41;10483620;28;20044;-78
2024/01/17 20:45:51;;;;;;;49.37;33.00;;;;;;;-3.76;100.00;98676.31;10462598;28;20037;-77
2024/01/17 20:50:52;;;;;;;51.80;31.80;;;;;;;-3.77;100.00;98692.41;10450577;28;20209;-77
2024/01/17 20:55:52;;;;;;;49.10;33.57;;;;;;;-3.82;100.00;98697.22;10472979;28;20120;-78
2024/01/17 21:00:54;;;;;;;39.57;28.40;;;;;;;-3.81;100.00;98709.22;10499326;28;20122;-78
2024/01/17 21:05:54;;;;;;;40.63;28.13;;;;;;;-3.81;100.00;98698.09;10482526;28;20032;-77
2024/01/17 21:10:55;;;;;;;42.90;30.40;;;;;;;-3.68;100.00;98690.50;10499566;28;20115;-77
2024/01/17 21:15:56;;;;;;;44.83;31.47;;;;;;;-3.63;100.00;98690.84;10489460;28;20502;-78
2024/01/17 21:20:56;;;;;;;35.77;27.77;;;;;;;-3.65;100.00;98689.84;10491926;28;20115;-77
2024/01/17 21:25:58;;;;;;;37.77;27.17;;;;;;;-3.71;100.00;98703.97;10490716;27;20119;-77
2024/01/17 21:30:59;;;;;;;42.67;26.33;;;;;;;-3.83;100.00;98705.69;10486059;28;20037;-77
2024/01/17 21:36:00;;;;;;;41.70;26.93;;;;;;;-4.04;100.00;98711.06;10480053;28;20075;-77
2024/01/17 21:41:00;;;;;;;40.10;26.93;;;;;;;-4.20;100.00;98734.63;10476877;28;20029;-78
2024/01/17 21:46:01;;;;;;;35.93;24.30;;;;;;;-4.17;100.00;98736.53;10478916;28;20127;-77
2024/01/17 21:51:01;;;;;;;35.80;26.57;;;;;;;-4.18;100.00;98740.72;10477779;28;20388;-77
2024/01/17 21:56:02;;;;;;;45.77;28.43;;;;;;;-4.16;100.00;98736.63;10491631;28;20137;-78
2024/01/17 22:01:03;;;;;;;39.90;24.77;;;;;;;-4.14;100.00;98750.38;10447424;28;20090;-77
2024/01/17 22:06:04;;;;;;;30.50;20.23;;;;;;;-4.13;100.00;98759.84;10482908;28;20127;-78
2024/01/17 22:11:05;;;;;;;42.28;29.88;;;;;;;-4.11;100.00;98767.63;10467895;28;20071;-78
2024/01/17 22:16:07;;;;;;;39.30;26.08;;;;;;;-4.09;100.00;98763.50;10440828;28;20124;-78
2024/01/17 22:21:08;;;;;;;35.35;27.98;;;;;;;-4.04;100.00;98774.94;10472267;28;20488;-78
2024/01/17 22:26:09;;;;;;;45.83;30.43;;;;;;;-4.02;100.00;98773.41;10455048;28;20048;-78
2024/01/17 22:31:13;;;;;;;40.55;30.80;;;;;;;-4.00;100.00;98769.28;10444662;28;20159;-77
2024/01/17 22:36:21;;;;;;;43.83;30.00;;;;;;;-3.95;100.00;98772.16;10453930;28;20037;-78